createdAt,value
2017-09-13T00:00:03.144Z,0
2017-09-13T00:01:03.859Z,0
2017-09-13T00:02:03.762Z,0
2017-09-13T00:03:03.656Z,0
2017-09-13T00:04:03.795Z,0
2017-09-13T00:05:03.770Z,0
2017-09-13T00:06:03.974Z,0
2017-09-13T00:07:03.166Z,0
2017-09-13T00:08:03.238Z,0
2017-09-13T00:09:03.442Z,0
2017-09-13T00:10:03.526Z,0
2017-09-13T00:11:03.744Z,0
2017-09-13T00:12:03.140Z,0
2017-09-13T00:13:03.778Z,0
2017-09-13T00:14:03.795Z,0
2017-09-13T00:15:03.597Z,0
2017-09-13T00:16:03.415Z,0
2017-09-13T00:17:03.743Z,0
2017-09-13T00:18:03.109Z,0
2017-09-13T00:19:03.997Z,0
2017-09-13T00:20:02.963Z,0
2017-09-13T00:21:03.418Z,0
2017-09-13T00:22:03.397Z,0
2017-09-13T00:23:03.714Z,0
2017-09-13T00:24:03.409Z,0
2017-09-13T00:25:03.718Z,0
2017-09-13T00:26:03.404Z,0
2017-09-13T00:27:03.402Z,0
2017-09-13T00:28:03.401Z,0
2017-09-13T00:29:02.794Z,0
2017-09-13T00:30:03.087Z,0
2017-09-13T00:31:03.084Z,0
2017-09-13T00:32:03.713Z,0
2017-09-13T00:33:03.695Z,0
2017-09-13T00:34:03.401Z,0
2017-09-13T00:35:03.400Z,0
2017-09-13T00:36:03.695Z,0
2017-09-13T00:37:03.081Z,0
2017-09-13T00:38:03.373Z,0
2017-09-13T00:39:03.415Z,0
2017-09-13T00:40:03.684Z,0
2017-09-13T00:41:03.384Z,0
2017-09-13T00:42:03.064Z,0
2017-09-13T00:43:03.053Z,0
2017-09-13T00:44:03.672Z,0
2017-09-13T00:45:04.430Z,0
2017-09-13T00:46:03.667Z,0
2017-09-13T00:47:03.067Z,0
2017-09-13T00:48:03.372Z,0
2017-09-13T00:49:03.051Z,0
2017-09-13T00:50:02.732Z,0
2017-09-13T00:51:03.660Z,0
2017-09-13T00:52:03.364Z,0
2017-09-13T00:53:03.366Z,0
2017-09-13T00:54:03.053Z,0
2017-09-13T00:55:02.723Z,0
2017-09-13T00:56:03.027Z,0
2017-09-13T00:57:03.030Z,0
2017-09-13T00:58:03.652Z,0
2017-09-13T00:59:03.334Z,0
2017-09-13T01:00:03.337Z,0
2017-09-13T01:01:03.338Z,0
2017-09-13T01:02:03.328Z,0
2017-09-13T01:03:03.352Z,0
2017-09-13T01:04:02.706Z,0
2017-09-13T01:05:03.021Z,0
2017-09-13T01:06:03.621Z,0
2017-09-13T01:07:03.357Z,0
2017-09-13T01:08:03.208Z,0
2017-09-13T01:09:03.000Z,0
2017-09-13T01:10:03.007Z,0
2017-09-13T01:11:03.624Z,0
2017-09-13T01:12:03.049Z,0
2017-09-13T01:13:03.002Z,0
2017-09-13T01:14:03.317Z,0
2017-09-13T01:15:03.620Z,0
2017-09-13T01:16:03.047Z,0
2017-09-13T01:17:03.624Z,0
2017-09-13T01:18:03.597Z,0
2017-09-13T01:19:02.986Z,0
2017-09-13T01:20:03.300Z,0
2017-09-13T01:21:03.303Z,0
2017-09-13T01:22:03.282Z,0
2017-09-13T01:23:03.279Z,0
2017-09-13T01:24:03.587Z,0
2017-09-13T01:25:03.600Z,0
2017-09-13T01:26:02.965Z,0
2017-09-13T01:27:03.288Z,0
2017-09-13T01:28:03.276Z,0
2017-09-13T01:29:03.262Z,0
2017-09-13T01:30:03.579Z,0
2017-09-13T01:31:03.569Z,0
2017-09-13T01:32:02.951Z,0
2017-09-13T01:33:03.257Z,0
2017-09-13T01:34:03.564Z,0
2017-09-13T01:35:03.275Z,0
2017-09-13T01:36:03.253Z,0
2017-09-13T01:37:03.265Z,0
2017-09-13T01:38:03.246Z,0
2017-09-13T01:39:02.937Z,0
2017-09-13T01:40:03.250Z,0
2017-09-13T01:41:03.247Z,0
2017-09-13T01:42:03.550Z,0
2017-09-13T01:43:03.242Z,0
2017-09-13T01:44:03.574Z,0
2017-09-13T01:45:04.041Z,0
2017-09-13T01:46:03.226Z,0
2017-09-13T01:47:02.913Z,0
2017-09-13T01:48:03.223Z,0
2017-09-13T01:49:02.919Z,0
2017-09-13T01:50:03.236Z,0
2017-09-13T01:51:03.234Z,0
2017-09-13T01:52:03.528Z,0
2017-09-13T01:53:02.906Z,0
2017-09-13T01:54:03.214Z,0
2017-09-13T01:55:02.285Z,0
2017-09-13T01:56:02.904Z,0
2017-09-13T01:57:02.899Z,0
2017-09-13T01:58:03.200Z,0
2017-09-13T01:59:03.222Z,0
2017-09-13T02:00:03.214Z,0
2017-09-13T02:01:02.895Z,0
2017-09-13T02:02:03.210Z,0
2017-09-13T02:03:03.509Z,0
2017-09-13T02:04:03.204Z,0
2017-09-13T02:05:02.886Z,0
2017-09-13T02:06:02.572Z,0
2017-09-13T02:07:02.875Z,0
2017-09-13T02:08:02.875Z,0
2017-09-13T02:09:02.874Z,0
2017-09-13T02:10:05.831Z,0
2017-09-13T02:11:03.182Z,0
2017-09-13T02:12:03.186Z,0
2017-09-13T02:13:03.171Z,0
2017-09-13T02:14:03.172Z,0
2017-09-13T02:15:02.862Z,0
2017-09-13T02:16:03.413Z,0
2017-09-13T02:17:02.865Z,0
2017-09-13T02:18:03.166Z,0
2017-09-13T02:19:02.852Z,0
2017-09-13T02:20:03.169Z,0
2017-09-13T02:21:03.177Z,0
2017-09-13T02:22:03.177Z,0
2017-09-13T02:23:02.832Z,0
2017-09-13T02:24:03.148Z,0
2017-09-13T02:25:02.830Z,0
2017-09-13T02:26:02.517Z,0
2017-09-13T02:27:03.444Z,0
2017-09-13T02:28:03.132Z,0
2017-09-13T02:29:03.139Z,0
2017-09-13T02:30:02.829Z,0
2017-09-13T02:31:03.130Z,0
2017-09-13T02:32:02.504Z,0
2017-09-13T02:33:03.134Z,0
2017-09-13T02:34:02.818Z,0
2017-09-13T02:35:02.829Z,0
2017-09-13T02:36:03.432Z,0
2017-09-13T02:37:03.113Z,0
2017-09-13T02:38:03.429Z,0
2017-09-13T02:39:03.113Z,0
2017-09-13T02:40:03.421Z,0
2017-09-13T02:41:02.801Z,0
2017-09-13T02:42:03.117Z,0
2017-09-13T02:43:03.112Z,0
2017-09-13T02:44:03.110Z,0
2017-09-13T02:45:03.421Z,0
2017-09-13T02:46:03.293Z,0
2017-09-13T02:47:02.802Z,0
2017-09-13T02:48:03.099Z,0
2017-09-13T02:49:03.110Z,0
2017-09-13T02:50:03.109Z,0
2017-09-13T02:51:03.109Z,0
2017-09-13T02:52:03.098Z,0
2017-09-13T02:53:03.084Z,0
2017-09-13T02:54:02.770Z,0
2017-09-13T02:55:03.102Z,0
2017-09-13T02:56:02.777Z,0
2017-09-13T02:57:02.767Z,0
2017-09-13T02:58:03.375Z,0
2017-09-13T02:59:03.075Z,0
2017-09-13T03:00:03.395Z,0
2017-09-13T03:01:03.374Z,0
2017-09-13T03:02:03.065Z,0
2017-09-13T03:03:03.085Z,0
2017-09-13T03:04:02.747Z,0
2017-09-13T03:05:03.062Z,0
2017-09-13T03:06:03.512Z,0
2017-09-13T03:07:03.062Z,0
2017-09-13T03:08:03.056Z,0
2017-09-13T03:09:02.730Z,0
2017-09-13T03:10:03.050Z,0
2017-09-13T03:11:03.371Z,0
2017-09-13T03:12:03.064Z,0
2017-09-13T03:13:03.358Z,0
2017-09-13T03:14:03.346Z,0
2017-09-13T03:15:03.042Z,0
2017-09-13T03:16:03.761Z,0
2017-09-13T03:17:03.031Z,0
2017-09-13T03:18:03.067Z,0
2017-09-13T03:19:03.030Z,0
2017-09-13T03:20:03.032Z,0
2017-09-13T03:21:03.345Z,0
2017-09-13T03:22:02.704Z,0
2017-09-13T03:23:02.700Z,0
2017-09-13T03:24:02.999Z,0
2017-09-13T03:25:03.009Z,0
2017-09-13T03:26:02.693Z,0
2017-09-13T03:27:02.999Z,0
2017-09-13T03:28:02.997Z,0
2017-09-13T03:29:03.306Z,0
2017-09-13T03:30:02.691Z,0
2017-09-13T03:31:03.315Z,0
2017-09-13T03:32:03.307Z,0
2017-09-13T03:33:03.295Z,0
2017-09-13T03:34:02.969Z,0
2017-09-13T03:35:03.290Z,0
2017-09-13T03:36:02.973Z,0
2017-09-13T03:37:02.965Z,0
2017-09-13T03:38:02.672Z,0
2017-09-13T03:39:03.279Z,0
2017-09-13T03:40:02.957Z,0
2017-09-13T03:41:03.268Z,0
2017-09-13T03:42:02.640Z,0
2017-09-13T03:43:03.268Z,0
2017-09-13T03:44:02.349Z,0
2017-09-13T03:45:02.334Z,0
2017-09-13T03:46:03.202Z,0
2017-09-13T03:47:03.252Z,0
2017-09-13T03:48:03.254Z,0
2017-09-13T03:49:03.260Z,0
2017-09-13T03:50:03.239Z,0
2017-09-13T03:51:02.929Z,0
2017-09-13T03:52:03.235Z,0
2017-09-13T03:53:03.117Z,0
2017-09-13T03:54:02.923Z,0
2017-09-13T03:55:02.920Z,0
2017-09-13T03:56:02.921Z,0
2017-09-13T03:57:03.225Z,0
2017-09-13T03:58:02.911Z,0
2017-09-13T03:59:03.223Z,0
2017-09-13T04:00:03.225Z,0
2017-09-13T04:01:03.219Z,0
2017-09-13T04:02:02.897Z,0
2017-09-13T04:03:02.285Z,0
2017-09-13T04:04:02.892Z,0
2017-09-13T04:05:02.601Z,0
2017-09-13T04:06:02.577Z,0
2017-09-13T04:07:03.194Z,0
2017-09-13T04:08:03.380Z,0
2017-09-13T04:09:02.888Z,0
2017-09-13T04:10:02.571Z,0
2017-09-13T04:11:02.879Z,0
2017-09-13T04:12:02.873Z,0
2017-09-13T04:13:02.560Z,0
2017-09-13T04:14:02.872Z,0
2017-09-13T04:15:02.879Z,0
2017-09-13T04:16:02.864Z,0
2017-09-13T04:17:02.555Z,0
2017-09-13T04:18:02.863Z,0
2017-09-13T04:19:02.241Z,0
2017-09-13T04:20:02.863Z,0
2017-09-13T04:21:02.855Z,0
2017-09-13T04:22:03.163Z,0
2017-09-13T04:23:03.163Z,0
2017-09-13T04:24:02.541Z,0
2017-09-13T04:25:02.549Z,0
2017-09-13T04:26:02.841Z,0
2017-09-13T04:27:02.225Z,0
2017-09-13T04:28:02.831Z,0
2017-09-13T04:29:02.213Z,0
2017-09-13T04:30:03.142Z,0
2017-09-13T04:31:03.175Z,0
2017-09-13T04:32:02.505Z,0
2017-09-13T04:33:02.824Z,0
2017-09-13T04:34:02.522Z,0
2017-09-13T04:35:03.133Z,0
2017-09-13T04:36:03.169Z,0
2017-09-13T04:37:02.813Z,0
2017-09-13T04:38:02.812Z,0
2017-09-13T04:39:03.126Z,0
2017-09-13T04:40:03.137Z,0
2017-09-13T04:41:03.595Z,0
2017-09-13T04:42:02.494Z,0
2017-09-13T04:43:02.176Z,0
2017-09-13T04:44:03.111Z,0
2017-09-13T04:45:02.799Z,0
2017-09-13T04:46:02.787Z,0
2017-09-13T04:47:02.174Z,0
2017-09-13T04:48:02.179Z,0
2017-09-13T04:49:02.483Z,0
2017-09-13T04:50:02.484Z,0
2017-09-13T04:51:02.778Z,0
2017-09-13T04:52:02.790Z,0
2017-09-13T04:53:02.771Z,0
2017-09-13T04:54:02.783Z,0
2017-09-13T04:55:03.086Z,0
2017-09-13T04:56:03.078Z,0
2017-09-13T04:57:02.768Z,0
2017-09-13T04:58:02.760Z,5
2017-09-13T04:59:02.442Z,5
2017-09-13T05:00:02.139Z,5
2017-09-13T05:01:02.753Z,5
2017-09-13T05:02:03.059Z,5
2017-09-13T05:03:02.442Z,5
2017-09-13T05:04:02.440Z,5
2017-09-13T05:05:02.745Z,5
2017-09-13T05:06:02.742Z,5
2017-09-13T05:07:03.066Z,5
2017-09-13T05:08:02.372Z,10
2017-09-13T05:09:02.733Z,10
2017-09-13T05:10:02.729Z,10
2017-09-13T05:11:02.725Z,10
2017-09-13T05:12:02.413Z,10
2017-09-13T05:13:02.112Z,10
2017-09-13T05:14:02.418Z,10
2017-09-13T05:15:02.714Z,10
2017-09-13T05:16:02.713Z,10
2017-09-13T05:17:03.810Z,15
2017-09-13T05:18:02.787Z,15
2017-09-13T05:19:03.025Z,15
2017-09-13T05:20:02.732Z,15
2017-09-13T05:21:02.745Z,15
2017-09-13T05:22:02.720Z,20
2017-09-13T05:23:02.728Z,20
2017-09-13T05:24:02.417Z,20
2017-09-13T05:25:02.697Z,20
2017-09-13T05:26:02.721Z,20
2017-09-13T05:27:02.812Z,20
2017-09-13T05:28:02.684Z,25
2017-09-13T05:29:03.010Z,25
2017-09-13T05:30:02.080Z,25
2017-09-13T05:31:03.041Z,25
2017-09-13T05:32:02.878Z,25
2017-09-13T05:33:03.001Z,25
2017-09-13T05:34:02.688Z,25
2017-09-13T05:35:02.395Z,25
2017-09-13T05:36:02.089Z,25
2017-09-13T05:37:02.679Z,25
2017-09-13T05:38:02.987Z,25
2017-09-13T05:39:02.376Z,25
2017-09-13T05:40:02.674Z,25
2017-09-13T05:41:02.369Z,25
2017-09-13T05:42:02.133Z,25
2017-09-13T05:43:02.693Z,25
2017-09-13T05:44:02.661Z,25
2017-09-13T05:45:02.985Z,30
2017-09-13T05:46:02.367Z,30
2017-09-13T05:47:02.659Z,30
2017-09-13T05:48:02.660Z,30
2017-09-13T05:49:03.002Z,35
2017-09-13T05:50:02.062Z,35
2017-09-13T05:51:02.968Z,35
2017-09-13T05:52:02.744Z,35
2017-09-13T05:53:02.030Z,35
2017-09-13T05:54:02.654Z,35
2017-09-13T05:55:02.677Z,35
2017-09-13T05:56:02.989Z,35
2017-09-13T05:57:02.654Z,35
2017-09-13T05:58:02.369Z,35
2017-09-13T05:59:02.344Z,40
2017-09-13T06:00:02.983Z,40
2017-09-13T06:01:02.656Z,40
2017-09-13T06:02:02.093Z,40
2017-09-13T06:03:02.956Z,40
2017-09-13T06:04:02.334Z,40
2017-09-13T06:05:02.963Z,40
2017-09-13T06:06:02.341Z,40
2017-09-13T06:07:02.665Z,40
2017-09-13T06:08:02.850Z,40
2017-09-13T06:09:02.955Z,40
2017-09-13T06:10:02.952Z,40
2017-09-13T06:11:02.336Z,40
2017-09-13T06:12:02.638Z,45
2017-09-13T06:13:02.942Z,50
2017-09-13T06:14:02.329Z,50
2017-09-13T06:15:02.645Z,50
2017-09-13T06:16:02.332Z,55
2017-09-13T06:17:02.640Z,55
2017-09-13T06:18:02.528Z,60
2017-09-13T06:19:02.949Z,65
2017-09-13T06:20:02.334Z,70
2017-09-13T06:21:02.321Z,75
2017-09-13T06:22:02.636Z,80
2017-09-13T06:23:02.028Z,80
2017-09-13T06:24:02.323Z,75
2017-09-13T06:25:02.643Z,70
2017-09-13T06:26:02.630Z,65
2017-09-13T06:27:02.379Z,65
2017-09-13T06:28:02.322Z,65
2017-09-13T06:29:02.641Z,60
2017-09-13T06:30:02.341Z,55
2017-09-13T06:31:02.634Z,45
2017-09-13T06:32:02.064Z,45
2017-09-13T06:33:02.623Z,50
2017-09-13T06:34:02.013Z,50
2017-09-13T06:35:02.641Z,50
2017-09-13T06:36:02.635Z,50
2017-09-13T06:37:02.019Z,55
2017-09-13T06:38:02.316Z,55
2017-09-13T06:39:02.626Z,55
2017-09-13T06:40:02.956Z,55
2017-09-13T06:41:02.329Z,60
2017-09-13T06:42:02.336Z,65
2017-09-13T06:43:02.321Z,70
2017-09-13T06:44:02.640Z,75
2017-09-13T06:45:02.647Z,80
2017-09-13T06:46:02.954Z,80
2017-09-13T06:47:02.948Z,75
2017-09-13T06:48:03.376Z,70
2017-09-13T06:49:02.633Z,65
2017-09-13T06:50:02.338Z,60
2017-09-13T06:51:02.946Z,55
2017-09-13T06:52:02.945Z,55
2017-09-13T06:53:02.634Z,60
2017-09-13T06:54:02.638Z,65
2017-09-13T06:55:02.640Z,70
2017-09-13T06:56:02.324Z,65
2017-09-13T06:57:02.327Z,65
2017-09-13T06:58:02.337Z,70
2017-09-13T06:59:02.964Z,75
2017-09-13T07:00:01.728Z,80
2017-09-13T07:01:02.962Z,85
2017-09-13T07:02:02.327Z,95
2017-09-13T07:03:02.024Z,100
2017-09-13T07:04:02.662Z,95
2017-09-13T07:05:02.960Z,90
2017-09-13T07:06:02.329Z,95
2017-09-13T07:07:02.652Z,95
2017-09-13T07:08:02.656Z,95
2017-09-13T07:09:02.958Z,85
2017-09-13T07:10:02.964Z,80
2017-09-13T07:11:02.640Z,80
2017-09-13T07:12:02.646Z,70
2017-09-13T07:13:02.334Z,75
2017-09-13T07:14:02.026Z,75
2017-09-13T07:15:02.350Z,85
2017-09-13T07:16:02.335Z,80
2017-09-13T07:17:02.344Z,80
2017-09-13T07:18:03.760Z,80
2017-09-13T07:19:02.643Z,85
2017-09-13T07:20:02.973Z,90
2017-09-13T07:21:02.644Z,85
2017-09-13T07:22:02.645Z,90
2017-09-13T07:23:02.040Z,90
2017-09-13T07:24:02.647Z,95
2017-09-13T07:25:02.087Z,95
2017-09-13T07:26:02.334Z,95
2017-09-13T07:27:02.040Z,95
2017-09-13T07:28:02.656Z,105
2017-09-13T07:29:02.047Z,100
2017-09-13T07:30:02.969Z,105
2017-09-13T07:31:02.656Z,115
2017-09-13T07:32:02.652Z,115
2017-09-13T07:33:02.976Z,110
2017-09-13T07:34:02.974Z,110
2017-09-13T07:35:02.665Z,105
2017-09-13T07:36:02.666Z,90
2017-09-13T07:37:02.654Z,80
2017-09-13T07:38:02.652Z,65
2017-09-13T07:39:02.649Z,55
2017-09-13T07:40:02.674Z,55
2017-09-13T07:41:02.671Z,65
2017-09-13T07:42:02.353Z,75
2017-09-13T07:43:02.661Z,70
2017-09-13T07:44:02.357Z,65
2017-09-13T07:45:02.669Z,70
2017-09-13T07:46:02.662Z,75
2017-09-13T07:47:02.052Z,75
2017-09-13T07:48:02.369Z,70
2017-09-13T07:49:03.233Z,70
2017-09-13T07:50:02.378Z,70
2017-09-13T07:51:02.981Z,75
2017-09-13T07:52:02.378Z,80
2017-09-13T07:53:02.374Z,80
2017-09-13T07:54:03.001Z,70
2017-09-13T07:55:02.980Z,75
2017-09-13T07:56:02.681Z,80
2017-09-13T07:57:02.730Z,90
2017-09-13T07:58:02.681Z,100
2017-09-13T07:59:02.710Z,95
2017-09-13T08:00:02.996Z,90
2017-09-13T08:01:02.996Z,85
2017-09-13T08:02:02.499Z,80
2017-09-13T08:03:02.368Z,85
2017-09-13T08:04:02.681Z,100
2017-09-13T08:05:02.682Z,105
2017-09-13T08:06:02.690Z,110
2017-09-13T08:07:02.768Z,125
2017-09-13T08:08:02.995Z,130
2017-09-13T08:09:02.680Z,145
2017-09-13T08:10:03.005Z,150
2017-09-13T08:11:02.688Z,140
2017-09-13T08:12:03.001Z,120
2017-09-13T08:13:02.079Z,110
2017-09-13T08:14:02.071Z,100
2017-09-13T08:15:03.011Z,105
2017-09-13T08:16:02.999Z,110
2017-09-13T08:17:02.074Z,105
2017-09-13T08:18:02.686Z,105
2017-09-13T08:19:03.797Z,110
2017-09-13T08:20:03.009Z,110
2017-09-13T08:21:02.699Z,115
2017-09-13T08:22:02.485Z,125
2017-09-13T08:23:02.999Z,115
2017-09-13T08:24:03.011Z,115
2017-09-13T08:25:02.701Z,130
2017-09-13T08:26:02.700Z,125
2017-09-13T08:27:03.089Z,125
2017-09-13T08:28:03.011Z,135
2017-09-13T08:29:02.392Z,145
2017-09-13T08:30:02.099Z,150
2017-09-13T08:31:02.700Z,140
2017-09-13T08:32:02.395Z,140
2017-09-13T08:33:03.011Z,140
2017-09-13T08:34:03.010Z,140
2017-09-13T08:35:03.041Z,135
2017-09-13T08:36:02.709Z,140
2017-09-13T08:37:02.401Z,145
2017-09-13T08:38:02.712Z,155
2017-09-13T08:39:03.026Z,160
2017-09-13T08:40:02.724Z,165
2017-09-13T08:41:03.025Z,175
2017-09-13T08:42:02.715Z,175
2017-09-13T08:43:03.037Z,180
2017-09-13T08:44:03.030Z,190
2017-09-13T08:45:02.427Z,185
2017-09-13T08:46:03.028Z,185
2017-09-13T08:47:02.726Z,190
2017-09-13T08:48:03.041Z,190
2017-09-13T08:49:03.302Z,185
2017-09-13T08:50:02.751Z,180
2017-09-13T08:51:02.420Z,195
2017-09-13T08:52:02.732Z,195
2017-09-13T08:53:03.047Z,195
2017-09-13T08:54:02.740Z,175
2017-09-13T08:55:02.482Z,165
2017-09-13T08:56:03.111Z,160
2017-09-13T08:57:03.046Z,165
2017-09-13T08:58:02.752Z,165
2017-09-13T08:59:02.750Z,145
2017-09-13T09:00:02.759Z,165
2017-09-13T09:01:02.443Z,185
2017-09-13T09:02:03.069Z,190
2017-09-13T09:03:03.068Z,195
2017-09-13T09:04:03.097Z,200
2017-09-13T09:05:02.464Z,200
2017-09-13T09:06:03.075Z,195
2017-09-13T09:07:02.803Z,195
2017-09-13T09:08:02.783Z,195
2017-09-13T09:09:03.085Z,210
2017-09-13T09:10:03.091Z,225
2017-09-13T09:11:02.775Z,210
2017-09-13T09:12:02.778Z,200
2017-09-13T09:13:02.179Z,185
2017-09-13T09:14:02.503Z,180
2017-09-13T09:15:02.781Z,170
2017-09-13T09:16:02.183Z,145
2017-09-13T09:17:02.804Z,140
2017-09-13T09:18:02.483Z,145
2017-09-13T09:19:02.439Z,145
2017-09-13T09:20:02.806Z,135
2017-09-13T09:21:03.114Z,135
2017-09-13T09:22:02.519Z,150
2017-09-13T09:23:02.829Z,160
2017-09-13T09:24:02.183Z,180
2017-09-13T09:25:02.811Z,205
2017-09-13T09:26:02.805Z,230
2017-09-13T09:27:02.505Z,245
2017-09-13T09:28:02.200Z,260
2017-09-13T09:29:02.867Z,255
2017-09-13T09:30:01.961Z,245
2017-09-13T09:31:02.517Z,245
2017-09-13T09:32:02.532Z,225
2017-09-13T09:33:02.522Z,205
2017-09-13T09:34:02.526Z,195
2017-09-13T09:35:02.533Z,210
2017-09-13T09:36:02.510Z,225
2017-09-13T09:37:02.818Z,260
2017-09-13T09:38:02.835Z,270
2017-09-13T09:39:01.930Z,260
2017-09-13T09:40:02.851Z,270
2017-09-13T09:41:02.519Z,270
2017-09-13T09:42:03.147Z,270
2017-09-13T09:43:02.217Z,265
2017-09-13T09:44:02.836Z,265
2017-09-13T09:45:02.871Z,275
2017-09-13T09:46:02.527Z,295
2017-09-13T09:47:02.533Z,310
2017-09-13T09:48:02.239Z,305
2017-09-13T09:49:03.099Z,315
2017-09-13T09:50:02.859Z,325
2017-09-13T09:51:02.559Z,320
2017-09-13T09:52:02.858Z,315
2017-09-13T09:53:02.546Z,330
2017-09-13T09:54:03.172Z,330
2017-09-13T09:55:02.593Z,335
2017-09-13T09:56:02.283Z,340
2017-09-13T09:57:02.562Z,355
2017-09-13T09:58:02.881Z,365
2017-09-13T09:59:02.634Z,370
2017-09-13T10:00:02.882Z,370
2017-09-13T10:01:02.890Z,355
2017-09-13T10:02:02.888Z,350
2017-09-13T10:03:03.200Z,355
2017-09-13T10:04:02.946Z,360
2017-09-13T10:05:03.241Z,370
2017-09-13T10:06:03.247Z,370
2017-09-13T10:07:02.600Z,350
2017-09-13T10:08:02.902Z,350
2017-09-13T10:09:02.335Z,415
2017-09-13T10:10:03.012Z,415
2017-09-13T10:11:02.925Z,410
2017-09-13T10:12:03.240Z,375
2017-09-13T10:13:02.921Z,370
2017-09-13T10:14:02.609Z,365
2017-09-13T10:15:02.937Z,365
2017-09-13T10:16:02.929Z,355
2017-09-13T10:17:02.934Z,345
2017-09-13T10:18:02.934Z,340
2017-09-13T10:19:02.941Z,375
2017-09-13T10:20:03.584Z,380
2017-09-13T10:21:03.266Z,385
2017-09-13T10:22:03.280Z,360
2017-09-13T10:23:02.961Z,315
2017-09-13T10:24:03.282Z,365
2017-09-13T10:25:02.704Z,340
2017-09-13T10:26:02.986Z,370
2017-09-13T10:27:02.055Z,350
2017-09-13T10:28:02.684Z,330
2017-09-13T10:29:02.982Z,335
2017-09-13T10:30:02.996Z,310
2017-09-13T10:31:03.024Z,270
2017-09-13T10:32:02.401Z,275
2017-09-13T10:33:03.310Z,305
2017-09-13T10:34:03.352Z,350
2017-09-13T10:35:02.724Z,360
2017-09-13T10:36:03.334Z,365
2017-09-13T10:37:03.327Z,360
2017-09-13T10:38:02.409Z,355
2017-09-13T10:39:02.439Z,370
2017-09-13T10:40:02.794Z,360
2017-09-13T10:41:03.368Z,365
2017-09-13T10:42:02.426Z,390
2017-09-13T10:43:02.730Z,350
2017-09-13T10:44:03.043Z,355
2017-09-13T10:45:03.390Z,380
2017-09-13T10:46:03.167Z,360
2017-09-13T10:47:03.378Z,380
2017-09-13T10:48:02.759Z,340
2017-09-13T10:49:03.365Z,305
2017-09-13T10:50:03.686Z,335
2017-09-13T10:51:02.769Z,270
2017-09-13T10:52:03.069Z,245
2017-09-13T10:53:03.393Z,300
2017-09-13T10:54:02.783Z,265
2017-09-13T10:55:03.101Z,240
2017-09-13T10:56:02.793Z,235
2017-09-13T10:57:03.117Z,270
2017-09-13T10:58:03.113Z,245
2017-09-13T10:59:02.486Z,265
2017-09-13T11:00:03.433Z,275
2017-09-13T11:01:03.134Z,330
2017-09-13T11:02:03.447Z,355
2017-09-13T11:03:03.437Z,325
2017-09-13T11:04:02.823Z,305
2017-09-13T11:05:03.142Z,300
2017-09-13T11:06:03.143Z,305
2017-09-13T11:07:03.458Z,315
2017-09-13T11:08:03.450Z,355
2017-09-13T11:09:03.145Z,350
2017-09-13T11:10:03.459Z,360
2017-09-13T11:11:03.462Z,325
2017-09-13T11:12:03.176Z,310
2017-09-13T11:13:02.861Z,300
2017-09-13T11:14:02.864Z,285
2017-09-13T11:15:03.176Z,275
2017-09-13T11:16:03.180Z,270
2017-09-13T11:17:02.272Z,275
2017-09-13T11:18:02.882Z,295
2017-09-13T11:19:03.503Z,325
2017-09-13T11:20:04.513Z,300
2017-09-13T11:21:03.211Z,305
2017-09-13T11:22:02.584Z,310
2017-09-13T11:23:03.220Z,290
2017-09-13T11:24:03.215Z,290
2017-09-13T11:25:03.216Z,295
2017-09-13T11:26:02.609Z,305
2017-09-13T11:27:03.225Z,320
2017-09-13T11:28:02.602Z,325
2017-09-13T11:29:02.963Z,330
2017-09-13T11:30:03.543Z,330
2017-09-13T11:31:03.551Z,330
2017-09-13T11:32:03.575Z,330
2017-09-13T11:33:03.565Z,345
2017-09-13T11:34:02.956Z,360
2017-09-13T11:35:03.285Z,370
2017-09-13T11:36:03.653Z,330
2017-09-13T11:37:03.263Z,320
2017-09-13T11:38:03.271Z,305
2017-09-13T11:39:03.572Z,290
2017-09-13T11:40:03.294Z,270
2017-09-13T11:41:03.590Z,275
2017-09-13T11:42:02.980Z,275
2017-09-13T11:43:03.297Z,280
2017-09-13T11:44:02.991Z,280
2017-09-13T11:45:03.296Z,295
2017-09-13T11:46:03.615Z,290
2017-09-13T11:47:03.294Z,285
2017-09-13T11:48:03.335Z,285
2017-09-13T11:49:03.364Z,285
2017-09-13T11:50:04.752Z,285
2017-09-13T11:51:03.631Z,285
2017-09-13T11:52:03.631Z,275
2017-09-13T11:53:03.643Z,260
2017-09-13T11:54:03.662Z,245
2017-09-13T11:55:03.031Z,245
2017-09-13T11:56:03.045Z,255
2017-09-13T11:57:03.658Z,260
2017-09-13T11:58:03.376Z,255
2017-09-13T11:59:02.760Z,245
2017-09-13T12:00:03.061Z,235
2017-09-13T12:01:03.065Z,210
2017-09-13T12:02:03.056Z,185
2017-09-13T12:03:03.377Z,165
2017-09-13T12:04:03.380Z,140
2017-09-13T12:05:03.677Z,120
2017-09-13T12:06:03.376Z,125
2017-09-13T12:07:03.404Z,120
2017-09-13T12:08:02.787Z,140
2017-09-13T12:09:03.703Z,165
2017-09-13T12:10:03.428Z,200
2017-09-13T12:11:03.738Z,185
2017-09-13T12:12:03.090Z,165
2017-09-13T12:13:03.725Z,170
2017-09-13T12:14:02.802Z,170
2017-09-13T12:15:03.112Z,140
2017-09-13T12:16:03.111Z,105
2017-09-13T12:17:03.111Z,100
2017-09-13T12:18:03.420Z,110
2017-09-13T12:19:03.112Z,105
2017-09-13T12:20:04.229Z,100
2017-09-13T12:21:03.439Z,90
2017-09-13T12:22:03.126Z,95
2017-09-13T12:23:03.455Z,105
2017-09-13T12:24:03.140Z,95
2017-09-13T12:25:03.446Z,95
2017-09-13T12:26:03.142Z,105
2017-09-13T12:27:03.752Z,90
2017-09-13T12:28:03.146Z,85
2017-09-13T12:29:02.870Z,85
2017-09-13T12:30:02.842Z,80
2017-09-13T12:31:03.193Z,80
2017-09-13T12:32:03.488Z,75
2017-09-13T12:33:03.166Z,90
2017-09-13T12:34:02.847Z,90
2017-09-13T12:35:03.798Z,85
2017-09-13T12:36:03.494Z,70
2017-09-13T12:37:02.970Z,70
2017-09-13T12:38:03.185Z,75
2017-09-13T12:39:03.822Z,75
2017-09-13T12:40:03.552Z,75
2017-09-13T12:41:03.199Z,90
2017-09-13T12:42:03.527Z,105
2017-09-13T12:43:03.499Z,130
2017-09-13T12:44:03.840Z,140
2017-09-13T12:45:03.853Z,155
2017-09-13T12:46:03.197Z,165
2017-09-13T12:47:03.202Z,160
2017-09-13T12:48:03.202Z,150
2017-09-13T12:49:03.202Z,150
2017-09-13T12:50:03.209Z,145
2017-09-13T12:51:03.356Z,150
2017-09-13T12:52:03.213Z,155
2017-09-13T12:53:03.551Z,150
2017-09-13T12:54:03.227Z,160
2017-09-13T12:55:03.540Z,160
2017-09-13T12:56:03.532Z,160
2017-09-13T12:57:03.236Z,160
2017-09-13T12:58:03.865Z,160
2017-09-13T12:59:03.540Z,160
2017-09-13T13:00:03.539Z,160
2017-09-13T13:01:03.541Z,175
2017-09-13T13:02:03.543Z,190
2017-09-13T13:03:03.558Z,200
2017-09-13T13:04:02.632Z,210
2017-09-13T13:05:03.579Z,240
2017-09-13T13:06:03.575Z,260
2017-09-13T13:07:03.559Z,280
2017-09-13T13:08:03.267Z,285
2017-09-13T13:09:03.881Z,275
2017-09-13T13:10:03.571Z,265
2017-09-13T13:11:03.597Z,260
2017-09-13T13:12:03.899Z,255
2017-09-13T13:13:03.273Z,255
2017-09-13T13:14:03.922Z,255
2017-09-13T13:15:03.905Z,245
2017-09-13T13:16:03.290Z,240
2017-09-13T13:17:03.298Z,240
2017-09-13T13:18:02.990Z,230
2017-09-13T13:19:03.316Z,230
2017-09-13T13:20:03.925Z,230
2017-09-13T13:21:03.612Z,225
2017-09-13T13:22:03.316Z,220
2017-09-13T13:23:03.303Z,210
2017-09-13T13:24:03.649Z,200
2017-09-13T13:25:03.052Z,200
2017-09-13T13:26:03.938Z,205
2017-09-13T13:27:03.381Z,215
2017-09-13T13:28:03.326Z,225
2017-09-13T13:29:03.950Z,230
2017-09-13T13:30:03.646Z,225
2017-09-13T13:31:03.052Z,220
2017-09-13T13:32:03.650Z,205
2017-09-13T13:33:03.042Z,195
2017-09-13T13:34:03.040Z,180
2017-09-13T13:35:03.065Z,170
2017-09-13T13:36:03.990Z,155
2017-09-13T13:37:03.990Z,150
2017-09-13T13:38:03.366Z,120
2017-09-13T13:39:03.685Z,100
2017-09-13T13:40:03.699Z,90
2017-09-13T13:41:03.681Z,90
2017-09-13T13:42:03.387Z,80
2017-09-13T13:43:03.407Z,75
2017-09-13T13:44:03.996Z,75
2017-09-13T13:45:04.010Z,80
2017-09-13T13:46:03.394Z,90
2017-09-13T13:47:03.463Z,100
2017-09-13T13:48:03.703Z,120
2017-09-13T13:49:03.711Z,120
2017-09-13T13:50:03.412Z,125
2017-09-13T13:51:03.715Z,160
2017-09-13T13:52:03.404Z,165
2017-09-13T13:53:03.417Z,150
2017-09-13T13:54:04.033Z,170
2017-09-13T13:55:03.416Z,205
2017-09-13T13:56:03.428Z,200
2017-09-13T13:57:03.438Z,210
2017-09-13T13:58:04.049Z,180
2017-09-13T13:59:03.735Z,165
2017-09-13T14:00:04.054Z,150
2017-09-13T14:01:03.770Z,135
2017-09-13T14:02:03.442Z,140
2017-09-13T14:03:03.442Z,115
2017-09-13T14:04:03.754Z,100
2017-09-13T14:05:03.468Z,90
2017-09-13T14:06:03.155Z,80
2017-09-13T14:07:04.090Z,75
2017-09-13T14:08:04.081Z,70
2017-09-13T14:09:03.466Z,75
2017-09-13T14:10:03.470Z,80
2017-09-13T14:11:03.792Z,65
2017-09-13T14:12:03.790Z,70
2017-09-13T14:13:03.466Z,80
2017-09-13T14:14:03.790Z,105